Terminal Aerodrome Forecast
Issued by NWS

Home | Current Version | Previous Version | Text Only | Print | Product List | Glossary On
Versions: 1 2 3 4 5 6 7 8 9 10 11 12 13 14
467
FTUS41 KPBZ 232320
TAFLBE
TAF
KLBE 232320Z 2400/2424 11005KT P6SM BKN150
     FM241500 10009KT P6SM BKN100
     FM242100 10012G20KT P6SM BKN025=

USA.gov is the U.S. government's official web portal to all federal, state and local government web resources and services.